createdAt,value
2022-12-14T00:01:38.351Z,12.90
2022-12-14T00:04:05.608Z,14.52
2022-12-14T00:06:33.571Z,14.35
2022-12-14T00:09:02.219Z,13.60
2022-12-14T00:11:30.895Z,13.98
2022-12-14T00:13:59.145Z,13.43
2022-12-14T00:16:27.445Z,16.42
2022-12-14T00:18:55.688Z,14.48
2022-12-14T00:21:23.344Z,16.15
2022-12-14T00:23:53.868Z,16.27
2022-12-14T00:26:24.791Z,13.93
2022-12-14T00:28:52.900Z,16.27
2022-12-14T00:31:20.900Z,13.75
2022-12-14T00:33:50.452Z,14.25
2022-12-14T00:36:17.755Z,14.95
2022-12-14T00:38:45.328Z,14.85
2022-12-14T00:41:12.688Z,15.15
2022-12-14T00:43:39.992Z,23.75
2022-12-14T00:46:07.473Z,20.63
2022-12-14T00:48:34.938Z,10.88
2022-12-14T00:51:02.107Z,11.05
2022-12-14T00:53:29.286Z,13.75
2022-12-14T00:55:56.454Z,14.10
2022-12-14T00:58:24.854Z,14.23
2022-12-14T01:01:02.634Z,14.80
2022-12-14T01:03:30.453Z,13.43
2022-12-14T01:05:58.037Z,14.45
2022-12-14T01:08:25.436Z,13.18
2022-12-14T01:10:53.234Z,14.05
2022-12-14T01:13:20.416Z,14.90
2022-12-14T01:15:47.651Z,13.07
2022-12-14T01:18:16.933Z,13.93
2022-12-14T01:20:44.169Z,11.55
2022-12-14T01:23:11.312Z,11.32
2022-12-14T01:25:38.473Z,14.63
2022-12-14T01:28:05.714Z,13.38
2022-12-14T01:30:32.927Z,13.63
2022-12-14T01:33:00.754Z,18.73
2022-12-14T01:35:27.998Z,16.67
2022-12-14T01:37:55.134Z,16.33
2022-12-14T01:40:22.513Z,16.20
2022-12-14T01:42:49.744Z,12.68
2022-12-14T01:45:19.102Z,10.60
2022-12-14T01:47:51.940Z,11.38
2022-12-14T01:50:23.249Z,13.70
2022-12-14T01:52:53.493Z,13.00
2022-12-14T01:55:26.933Z,11.25
2022-12-14T01:57:55.845Z,13.00
2022-12-14T02:00:23.300Z,11.70
2022-12-14T02:02:56.492Z,14.70
2022-12-14T02:05:24.562Z,12.38
2022-12-14T02:07:53.539Z,12.52
2022-12-14T02:10:21.903Z,15.02
2022-12-14T02:12:50.766Z,12.68
2022-12-14T02:15:18.103Z,14.63
2022-12-14T02:17:46.509Z,12.95
2022-12-14T02:20:15.022Z,14.55
2022-12-14T02:22:45.283Z,14.05
2022-12-14T02:25:24.219Z,13.63
2022-12-14T02:28:09.746Z,11.75
2022-12-14T02:30:41.490Z,14.18
2022-12-14T02:33:20.790Z,11.77
2022-12-14T02:36:00.073Z,17.38
2022-12-14T02:38:46.009Z,16.00
2022-12-14T02:41:16.343Z,14.80
2022-12-14T02:44:02.067Z,14.32
2022-12-14T02:46:45.080Z,14.40
2022-12-14T02:49:33.483Z,12.93
2022-12-14T02:52:00.704Z,15.23
2022-12-14T02:54:35.932Z,13.80
2022-12-14T02:57:12.034Z,12.80
2022-12-14T02:59:39.298Z,13.65
2022-12-14T03:02:06.887Z,16.45
2022-12-14T03:04:45.755Z,12.93
2022-12-14T03:07:28.244Z,12.48
2022-12-14T03:09:55.412Z,10.63
2022-12-14T03:12:22.704Z,9.80
2022-12-14T03:14:53.184Z,12.35
2022-12-14T03:17:23.168Z,13.38
2022-12-14T03:20:02.651Z,14.30
2022-12-14T03:22:33.511Z,15.02
2022-12-14T03:25:04.117Z,14.55
2022-12-14T03:27:34.083Z,16.17
2022-12-14T03:30:05.335Z,14.55
2022-12-14T03:32:34.107Z,11.95
2022-12-14T03:35:04.447Z,10.88
2022-12-14T03:37:43.407Z,12.52
2022-12-14T03:40:12.857Z,15.52
2022-12-14T03:42:42.845Z,12.23
2022-12-14T03:45:19.279Z,11.77
2022-12-14T03:47:52.615Z,11.50
2022-12-14T03:50:25.685Z,13.98
2022-12-14T03:53:13.109Z,12.68
2022-12-14T03:55:40.244Z,12.30
2022-12-14T03:58:12.924Z,13.27
2022-12-14T04:03:12.736Z,11.32
2022-12-14T04:08:20.676Z,10.98
2022-12-14T04:11:08.955Z,10.88
2022-12-14T04:13:57.984Z,13.50
2022-12-14T04:16:46.492Z,10.68
2022-12-14T04:19:20.845Z,9.88
2022-12-14T04:21:55.978Z,13.68
2022-12-14T04:24:46.689Z,8.35
2022-12-14T04:27:32.512Z,10.38
2022-12-14T04:30:00.924Z,8.82
2022-12-14T04:32:34.260Z,15.80
2022-12-14T04:35:05.238Z,40.92
2022-12-14T04:37:33.114Z,36.05
2022-12-14T04:40:05.585Z,13.93
2022-12-14T04:42:40.858Z,12.98
2022-12-14T04:45:10.506Z,11.45
2022-12-14T04:47:42.125Z,11.32
2022-12-14T04:50:13.401Z,11.57
2022-12-14T04:52:44.837Z,12.02
2022-12-14T04:55:15.744Z,11.55
2022-12-14T04:57:42.898Z,13.10
2022-12-14T05:00:11.019Z,13.20
2022-12-14T05:02:44.326Z,10.88
2022-12-14T05:05:30.552Z,8.90
2022-12-14T05:08:10.242Z,11.55
2022-12-14T05:10:41.782Z,11.35
2022-12-14T05:13:15.636Z,14.73
2022-12-14T05:15:44.548Z,10.70
2022-12-14T05:18:11.811Z,11.10
2022-12-14T05:20:39.052Z,10.00
2022-12-14T05:23:06.223Z,11.65
2022-12-14T05:25:33.463Z,13.88
2022-12-14T05:28:00.765Z,10.40
2022-12-14T05:30:28.112Z,12.50
2022-12-14T05:32:55.385Z,14.60
2022-12-14T05:35:22.841Z,21.00
2022-12-14T05:37:50.104Z,28.80
2022-12-14T05:40:17.473Z,22.95
2022-12-14T05:42:47.679Z,36.08
2022-12-14T05:45:18.186Z,43.85
2022-12-14T05:47:45.431Z,35.40
2022-12-14T05:50:12.608Z,49.03
2022-12-14T05:52:39.769Z,34.78
2022-12-14T05:55:07.267Z,30.17
2022-12-14T05:57:34.445Z,31.80
2022-12-14T06:00:04.254Z,29.77
2022-12-14T06:02:31.709Z,29.42
2022-12-14T06:04:58.953Z,23.73
2022-12-14T06:07:28.265Z,25.85
2022-12-14T06:09:55.887Z,22.25
2022-12-14T06:12:23.120Z,27.05
2022-12-14T06:14:50.276Z,20.52
2022-12-14T06:17:17.517Z,22.85
2022-12-14T06:19:49.814Z,21.90
2022-12-14T06:24:44.749Z,19.95
2022-12-14T06:27:11.907Z,21.25
2022-12-14T06:29:39.162Z,18.00
2022-12-14T06:32:06.628Z,21.10
2022-12-14T06:34:38.227Z,16.77
2022-12-14T06:37:06.481Z,20.98
2022-12-14T06:39:34.026Z,27.77
2022-12-14T06:42:01.177Z,24.33
2022-12-14T06:44:28.392Z,22.05
2022-12-14T06:46:55.850Z,24.70
2022-12-14T06:49:23.216Z,18.83
2022-12-14T06:51:50.484Z,30.70
2022-12-14T06:54:18.121Z,37.60
2022-12-14T06:56:46.569Z,42.33
2022-12-14T06:59:16.346Z,28.63
2022-12-14T07:01:44.106Z,21.73
2022-12-14T07:04:11.491Z,24.25
2022-12-14T07:06:39.816Z,30.83
2022-12-14T07:09:08.176Z,38.72
2022-12-14T07:11:35.419Z,38.95
2022-12-14T07:14:06.139Z,33.42
2022-12-14T07:16:34.260Z,25.63
2022-12-14T07:19:01.602Z,28.30
2022-12-14T07:21:29.371Z,32.03
2022-12-14T07:23:56.602Z,25.98
2022-12-14T07:26:25.062Z,25.88
2022-12-14T07:28:52.414Z,30.13
2022-12-14T07:31:21.438Z,21.58
2022-12-14T07:33:49.071Z,17.05
2022-12-14T07:36:20.282Z,16.58
2022-12-14T07:38:48.583Z,16.88
2022-12-14T07:41:22.113Z,15.35
2022-12-14T07:43:50.347Z,14.38
2022-12-14T07:46:19.645Z,21.25
2022-12-14T07:48:48.026Z,29.65
2022-12-14T07:51:16.556Z,62.22
2022-12-14T07:53:43.858Z,43.95
2022-12-14T07:56:15.533Z,29.38
2022-12-14T07:58:42.726Z,48.22
2022-12-14T08:01:11.339Z,22.90
2022-12-14T08:03:38.894Z,24.00
2022-12-14T08:06:07.161Z,24.33
2022-12-14T08:08:34.479Z,24.90
2022-12-14T08:11:02.256Z,21.40
2022-12-14T08:13:29.967Z,24.85
2022-12-14T08:15:57.522Z,24.75
2022-12-14T08:18:24.913Z,27.05
2022-12-14T08:20:53.393Z,25.83
2022-12-14T08:23:21.386Z,24.55
2022-12-14T08:25:53.526Z,30.55
2022-12-14T08:28:20.738Z,37.78
2022-12-14T08:30:47.873Z,32.50
2022-12-14T08:33:17.747Z,34.45
2022-12-14T08:35:45.275Z,25.92
2022-12-14T08:38:12.452Z,17.55
2022-12-14T08:43:43.858Z,16.52
2022-12-14T08:46:17.613Z,23.20
2022-12-14T08:48:50.617Z,31.25
2022-12-14T08:51:36.489Z,42.38
2022-12-14T08:54:16.781Z,38.03
2022-12-14T08:56:57.625Z,29.27
2022-12-14T09:00:00.239Z,33.67
2022-12-14T09:02:34.778Z,28.95
2022-12-14T09:05:06.687Z,30.25
2022-12-14T09:07:44.661Z,27.08
2022-12-14T09:10:15.437Z,30.10
2022-12-14T09:12:47.134Z,24.02
2022-12-14T09:15:28.874Z,24.08
2022-12-14T09:18:10.058Z,31.83
2022-12-14T09:20:59.187Z,30.17
2022-12-14T09:24:00.105Z,36.72
2022-12-14T09:26:32.661Z,29.63
2022-12-14T09:29:07.107Z,45.35
2022-12-14T09:31:54.654Z,37.08
2022-12-14T09:34:51.982Z,38.78
2022-12-14T09:40:14.809Z,40.30
2022-12-14T09:43:05.509Z,32.28
2022-12-14T09:45:38.326Z,36.22
2022-12-14T09:48:09.513Z,34.97
2022-12-14T09:50:44.474Z,37.42
2022-12-14T09:53:37.496Z,27.48
2022-12-14T09:56:22.469Z,25.53
2022-12-14T09:59:09.448Z,38.00
2022-12-14T10:05:16.599Z,36.25
2022-12-14T10:07:55.600Z,30.33
2022-12-14T10:10:43.680Z,34.53
2022-12-14T10:13:41.064Z,31.63
2022-12-14T10:16:08.459Z,34.10
2022-12-14T10:19:02.152Z,28.13
2022-12-14T10:21:47.759Z,27.08
2022-12-14T10:24:21.547Z,30.05
2022-12-14T10:27:01.531Z,41.72
2022-12-14T10:29:50.520Z,36.15
2022-12-14T10:32:41.353Z,35.35
2022-12-14T10:35:35.786Z,33.50
2022-12-14T10:38:22.745Z,36.22
2022-12-14T10:40:54.265Z,38.70
2022-12-14T10:43:49.687Z,34.42
2022-12-14T10:46:27.816Z,39.42
2022-12-14T10:48:58.435Z,38.17
2022-12-14T10:51:31.996Z,34.53
2022-12-14T10:54:24.132Z,37.00
2022-12-14T10:57:03.126Z,36.53
2022-12-14T10:59:47.970Z,37.55
2022-12-14T11:02:50.162Z,34.58
2022-12-14T11:05:52.699Z,39.42
2022-12-14T11:08:49.322Z,52.47
2022-12-14T11:11:31.228Z,65.82
2022-12-14T11:14:11.025Z,84.80
2022-12-14T11:17:09.591Z,58.25
2022-12-14T11:19:39.125Z,50.95
2022-12-14T11:22:23.523Z,43.60
2022-12-14T11:24:59.743Z,52.25
2022-12-14T11:27:39.782Z,86.80
2022-12-14T11:30:08.899Z,171.63
2022-12-14T11:32:42.752Z,274.88
2022-12-14T11:35:35.988Z,61.38
2022-12-14T11:38:18.358Z,37.67
2022-12-14T11:40:47.103Z,31.27
2022-12-14T11:43:43.615Z,45.97
2022-12-14T11:46:18.980Z,29.73
2022-12-14T11:48:52.595Z,23.23
2022-12-14T11:51:22.832Z,33.97
2022-12-14T11:54:10.508Z,28.55
2022-12-14T11:56:40.467Z,30.70
2022-12-14T11:59:26.839Z,29.75
2022-12-14T12:02:21.174Z,27.75
2022-12-14T12:04:55.562Z,24.77
2022-12-14T12:07:46.625Z,29.38
2022-12-14T12:10:35.493Z,26.13
2022-12-14T12:13:13.386Z,26.92
2022-12-14T12:15:51.787Z,28.60
2022-12-14T12:18:46.154Z,29.65
2022-12-14T12:21:25.847Z,45.22
2022-12-14T12:25:08.177Z,35.55
2022-12-14T12:41:01.558Z,45.50
2022-12-14T12:45:59.032Z,27.65
2022-12-14T12:48:38.778Z,29.52
2022-12-14T12:51:08.278Z,30.02
2022-12-14T12:53:37.215Z,33.58
2022-12-14T12:56:22.993Z,31.20
2022-12-14T12:58:53.133Z,29.23
2022-12-14T13:01:41.758Z,33.22
2022-12-14T13:04:13.166Z,33.47
2022-12-14T13:06:48.580Z,34.30
2022-12-14T13:09:21.952Z,30.85
2022-12-14T13:11:54.436Z,30.05
2022-12-14T13:14:49.647Z,29.45
2022-12-14T13:23:36.531Z,31.27
2022-12-14T13:26:56.271Z,30.88
2022-12-14T13:29:20.438Z,31.60
2022-12-14T13:31:54.689Z,37.38
2022-12-14T13:37:10.290Z,74.35
2022-12-14T13:42:26.423Z,45.00
2022-12-14T13:44:59.881Z,34.92
2022-12-14T13:51:01.104Z,34.70
2022-12-14T13:53:39.426Z,32.90
2022-12-14T13:58:51.203Z,33.10
2022-12-14T14:01:39.372Z,34.10
2022-12-14T14:04:32.770Z,34.58
2022-12-14T14:10:04.236Z,35.05
2022-12-14T14:12:48.969Z,35.75
2022-12-14T14:15:27.019Z,34.40
2022-12-14T14:17:59.182Z,32.35
2022-12-14T14:20:39.217Z,32.25
2022-12-14T14:23:28.375Z,36.78
2022-12-14T14:29:08.166Z,43.03
2022-12-14T14:32:11.355Z,35.97
2022-12-14T14:34:41.486Z,41.50
2022-12-14T14:37:18.743Z,40.40
2022-12-14T14:39:56.879Z,43.45
2022-12-14T14:45:22.407Z,45.47
2022-12-14T14:48:05.207Z,44.33
2022-12-14T14:50:36.344Z,46.97
2022-12-14T14:58:45.968Z,47.00
2022-12-14T15:01:23.754Z,41.55
2022-12-14T15:03:51.729Z,48.40
2022-12-14T15:06:39.994Z,45.85
2022-12-14T15:09:13.499Z,52.30
2022-12-14T15:16:54.975Z,44.38
2022-12-14T15:19:34.346Z,48.58
2022-12-14T15:22:05.751Z,43.20
2022-12-14T15:24:37.135Z,43.80
2022-12-14T15:27:14.567Z,46.85
2022-12-14T15:29:45.170Z,46.08
2022-12-14T15:32:20.091Z,48.30
2022-12-14T15:35:05.894Z,40.55
2022-12-14T15:37:48.281Z,44.88
2022-12-14T15:40:23.837Z,57.25
2022-12-14T15:42:52.596Z,49.00
2022-12-14T15:45:23.928Z,49.15
2022-12-14T15:47:51.152Z,44.50
2022-12-14T15:50:23.052Z,45.22
2022-12-14T15:52:51.209Z,45.35
2022-12-14T15:55:24.884Z,42.92
2022-12-14T15:57:52.970Z,43.72
2022-12-14T16:00:20.893Z,41.92
2022-12-14T16:02:48.326Z,47.47
2022-12-14T16:05:16.957Z,49.80
2022-12-14T16:07:47.177Z,48.45
2022-12-14T16:10:23.674Z,49.50
2022-12-14T16:12:53.703Z,43.20
2022-12-14T16:15:23.943Z,45.17
2022-12-14T16:17:57.456Z,41.63
2022-12-14T16:20:31.667Z,41.83
2022-12-14T16:23:01.341Z,41.65
2022-12-14T16:25:29.346Z,43.75
2022-12-14T16:27:56.565Z,43.80
2022-12-14T16:30:31.244Z,40.47
2022-12-14T16:33:06.958Z,41.22
2022-12-14T16:35:35.621Z,47.80
2022-12-14T16:38:11.895Z,49.63
2022-12-14T16:40:59.423Z,48.95
2022-12-14T16:43:33.034Z,45.03
2022-12-14T16:46:00.776Z,53.63
2022-12-14T16:48:28.826Z,49.70
2022-12-14T16:51:44.804Z,54.15
2022-12-14T16:54:26.789Z,48.33
2022-12-14T16:56:59.058Z,51.03
2022-12-14T16:59:27.946Z,51.30
2022-12-14T17:01:55.393Z,52.47
2022-12-14T17:04:23.352Z,49.20
2022-12-14T17:06:52.338Z,47.50
2022-12-14T17:09:22.114Z,45.17
2022-12-14T17:11:49.822Z,47.28
2022-12-14T17:14:17.684Z,51.00
2022-12-14T17:16:45.864Z,46.42
2022-12-14T17:19:23.875Z,45.58
2022-12-14T17:21:51.419Z,48.25
2022-12-14T17:24:19.917Z,45.15
2022-12-14T17:26:47.466Z,55.25
2022-12-14T17:29:20.801Z,53.58
2022-12-14T17:31:49.955Z,54.83
2022-12-14T17:34:17.860Z,52.83
2022-12-14T17:36:45.619Z,54.40
2022-12-14T17:39:12.834Z,59.58
2022-12-14T17:41:41.933Z,54.38
2022-12-14T17:44:13.645Z,51.00
2022-12-14T17:46:40.936Z,52.85
2022-12-14T17:49:08.295Z,49.35
2022-12-14T17:51:41.620Z,55.55
2022-12-14T17:54:19.278Z,48.25
2022-12-14T17:56:47.090Z,54.10
2022-12-14T17:59:14.382Z,48.75
2022-12-14T18:01:42.263Z,47.58
2022-12-14T18:04:09.519Z,44.22
2022-12-14T18:06:36.842Z,46.60
2022-12-14T18:09:05.575Z,51.38
2022-12-14T18:11:32.788Z,40.95
2022-12-14T18:14:00.020Z,38.72
2022-12-14T18:16:29.064Z,48.55
2022-12-14T18:18:58.036Z,47.33
2022-12-14T18:21:27.870Z,44.13
2022-12-14T18:23:55.403Z,44.30
2022-12-14T18:26:22.767Z,43.60
2022-12-14T18:28:51.060Z,54.83
2022-12-14T18:31:26.797Z,60.95
2022-12-14T18:33:54.109Z,58.95
2022-12-14T18:36:22.395Z,56.45
2022-12-14T18:38:50.097Z,66.18
2022-12-14T18:41:18.575Z,65.93
2022-12-14T18:43:45.786Z,61.60
2022-12-14T18:46:13.392Z,64.97
2022-12-14T18:48:40.612Z,63.50
2022-12-14T18:51:08.460Z,55.28
2022-12-14T18:53:35.599Z,57.15
2022-12-14T18:56:03.791Z,57.67
2022-12-14T18:58:31.012Z,50.38
2022-12-14T19:00:59.407Z,57.83
2022-12-14T19:03:29.205Z,51.40
2022-12-14T19:06:34.771Z,57.10
2022-12-14T19:08:51.762Z,52.58
2022-12-14T19:11:32.583Z,51.85
2022-12-14T19:13:59.826Z,56.13
2022-12-14T19:16:27.179Z,54.95
2022-12-14T19:18:54.397Z,54.50
2022-12-14T19:21:21.617Z,49.80
2022-12-14T19:23:48.783Z,50.75
2022-12-14T19:26:15.918Z,49.13
2022-12-14T19:28:43.453Z,46.38
2022-12-14T19:31:11.429Z,58.65
2022-12-14T19:33:39.206Z,54.08
2022-12-14T19:36:07.339Z,50.22
2022-12-14T19:38:37.315Z,57.53
2022-12-14T19:41:15.021Z,53.25
2022-12-14T19:43:42.156Z,57.15
2022-12-14T19:46:10.634Z,57.40
2022-12-14T19:48:38.199Z,56.97
2022-12-14T19:51:06.101Z,60.20
2022-12-14T19:53:34.045Z,52.63
2022-12-14T19:56:01.620Z,57.20
2022-12-14T19:58:29.067Z,46.67
2022-12-14T20:00:56.316Z,51.33
2022-12-14T20:03:23.926Z,48.92
2022-12-14T20:05:55.815Z,48.08
2022-12-14T20:08:23.334Z,47.53
2022-12-14T20:10:52.691Z,49.35
2022-12-14T20:13:20.311Z,44.70
2022-12-14T20:15:51.509Z,42.53
2022-12-14T20:18:19.144Z,44.60
2022-12-14T20:20:49.403Z,40.28
2022-12-14T20:23:17.669Z,51.50
2022-12-14T20:25:45.795Z,50.67
2022-12-14T20:28:13.031Z,42.90
2022-12-14T20:30:44.447Z,50.92
2022-12-14T20:33:11.633Z,47.35
2022-12-14T20:35:38.812Z,48.45
2022-12-14T20:38:06.126Z,50.33
2022-12-14T20:40:38.458Z,47.80
2022-12-14T20:43:06.633Z,45.95
2022-12-14T20:45:38.046Z,41.50
2022-12-14T20:48:05.324Z,40.65
2022-12-14T20:50:32.547Z,38.83
2022-12-14T20:52:59.694Z,40.65
2022-12-14T20:55:26.912Z,40.45
2022-12-14T20:57:54.124Z,36.03
2022-12-14T21:00:21.452Z,39.55
2022-12-14T21:02:48.692Z,40.88
2022-12-14T21:05:16.725Z,38.60
2022-12-14T21:07:43.925Z,39.42
2022-12-14T21:10:11.203Z,36.28
2022-12-14T21:12:38.370Z,41.88
2022-12-14T21:15:05.816Z,45.08
2022-12-14T21:17:33.629Z,43.40
2022-12-14T21:20:00.840Z,43.08
2022-12-14T21:22:28.956Z,39.55
2022-12-14T21:25:05.226Z,39.42
2022-12-14T21:27:34.501Z,36.00
2022-12-14T21:30:01.930Z,41.92
2022-12-14T21:32:29.185Z,44.22
2022-12-14T21:34:56.381Z,39.97
2022-12-14T21:37:23.634Z,33.10
2022-12-14T21:39:55.059Z,39.60
2022-12-14T21:42:25.915Z,36.22
2022-12-14T21:44:54.090Z,40.58
2022-12-14T21:47:26.336Z,37.17
2022-12-14T21:49:53.619Z,36.47
2022-12-14T21:52:22.686Z,34.15
2022-12-14T21:54:50.258Z,37.17
2022-12-14T21:57:37.521Z,36.42
2022-12-14T22:00:05.426Z,36.00
2022-12-14T22:02:32.642Z,38.25
2022-12-14T22:04:59.981Z,34.65
2022-12-14T22:07:30.709Z,36.40
2022-12-14T22:09:58.037Z,37.20
2022-12-14T22:12:25.219Z,39.05
2022-12-14T22:14:52.408Z,37.83
2022-12-14T22:17:19.634Z,33.53
2022-12-14T22:19:46.835Z,31.23
2022-12-14T22:22:15.300Z,35.63
2022-12-14T22:24:42.552Z,36.50
2022-12-14T22:27:10.950Z,36.60
2022-12-14T22:29:38.135Z,35.97
2022-12-14T22:32:05.560Z,32.85
2022-12-14T22:34:32.779Z,32.63
2022-12-14T22:36:59.963Z,31.67
2022-12-14T22:39:27.078Z,29.25
2022-12-14T22:41:54.273Z,32.15
2022-12-14T22:44:21.563Z,29.45
2022-12-14T22:46:49.922Z,31.58
2022-12-14T22:49:17.792Z,26.95
2022-12-14T22:51:45.387Z,31.38
2022-12-14T22:54:21.665Z,28.73
2022-12-14T22:57:03.224Z,28.63
2022-12-14T22:59:39.717Z,30.27
2022-12-14T23:02:07.177Z,28.75
2022-12-14T23:04:34.451Z,29.58
2022-12-14T23:07:01.638Z,29.35
2022-12-14T23:09:47.481Z,26.48
2022-12-14T23:12:33.385Z,28.65
2022-12-14T23:15:19.007Z,27.73
2022-12-14T23:18:05.129Z,30.27
2022-12-14T23:20:51.927Z,29.75
2022-12-14T23:23:37.903Z,30.38
2022-12-14T23:26:23.915Z,30.88
2022-12-14T23:29:10.081Z,26.35
2022-12-14T23:31:55.879Z,27.95
2022-12-14T23:34:42.580Z,28.80
2022-12-14T23:37:28.577Z,32.30
2022-12-14T23:40:14.343Z,32.53
2022-12-14T23:43:00.256Z,37.47
2022-12-14T23:45:46.346Z,33.60
2022-12-14T23:48:32.240Z,32.97
2022-12-14T23:51:19.708Z,32.92
2022-12-14T23:54:05.902Z,33.78
2022-12-14T23:56:51.686Z,33.67
2022-12-14T23:59:37.763Z,31.80
